Terminal Aerodrome Forecast
Issued by NWS Tulsa, OK

Home | Current Version | Previous Version | Text Only | Print | Product List | Glossary On
Versions: 1 2 3 4 5 6 7 8 9 10 11 12 13 14
000
FTUS44 KTSA 251100
TAFFSM
TAF
KFSM 251121Z 2512/2612 00000KT P6SM -RA FEW070 BKN090
     FM251400 29018G28KT P6SM OVC050
     FM260300 32010KT P6SM SKC=

USA.gov is the U.S. government's official web portal to all federal, state and local government web resources and services.